sensor_id;sensor_type;location;lat;lon;timestamp;temperature;humidity
46319;DHT22;32042;50.916;2.926;2024-02-16T03:21:31;12.40;99.90
46319;DHT22;32042;50.916;2.926;2024-02-16T03:23:58;12.00;99.90
46319;DHT22;32042;50.916;2.926;2024-02-16T03:26:23;12.00;99.90
46319;DHT22;32042;50.916;2.926;2024-02-16T03:28:49;12.00;99.90
46319;DHT22;32042;50.916;2.926;2024-02-16T03:31:22;12.00;99.90
46319;DHT22;32042;50.916;2.926;2024-02-16T03:33:48;12.00;99.90
46319;DHT22;32042;50.916;2.926;2024-02-16T03:36:15;12.00;99.90
46319;DHT22;32042;50.916;2.926;2024-02-16T03:38:42;12.00;99.90
46319;DHT22;32042;50.916;2.926;2024-02-16T03:41:12;12.00;99.90
46319;DHT22;32042;50.916;2.926;2024-02-16T03:43:38;12.00;99.90
46319;DHT22;32042;50.916;2.926;2024-02-16T03:46:04;12.00;99.90
46319;DHT22;32042;50.916;2.926;2024-02-16T03:48:30;12.00;99.90
46319;DHT22;32042;50.916;2.926;2024-02-16T03:50:55;12.00;99.90
46319;DHT22;32042;50.916;2.926;2024-02-16T03:53:21;11.90;99.90
46319;DHT22;32042;50.916;2.926;2024-02-16T03:55:47;12.00;99.90
46319;DHT22;32042;50.916;2.926;2024-02-16T03:58:12;11.90;99.90
46319;DHT22;32042;50.916;2.926;2024-02-16T04:00:38;12.00;99.90
46319;DHT22;32042;50.916;2.926;2024-02-16T04:03:04;11.90;99.90
46319;DHT22;32042;50.916;2.926;2024-02-16T04:05:31;12.00;99.90
46319;DHT22;32042;50.916;2.926;2024-02-16T04:08:00;11.90;99.90
46319;DHT22;32042;50.916;2.926;2024-02-16T04:10:28;11.90;99.90
46319;DHT22;32042;50.916;2.926;2024-02-16T04:12:54;11.90;99.90
46319;DHT22;32042;50.916;2.926;2024-02-16T04:15:19;11.90;99.90
46319;DHT22;32042;50.916;2.926;2024-02-16T04:17:45;11.90;99.90
46319;DHT22;32042;50.916;2.926;2024-02-16T04:20:11;11.90;99.90
46319;DHT22;32042;50.916;2.926;2024-02-16T04:22:36;11.90;99.90
46319;DHT22;32042;50.916;2.926;2024-02-16T04:25:04;11.90;99.90
46319;DHT22;32042;50.916;2.926;2024-02-16T04:27:30;11.90;99.90
46319;DHT22;32042;50.916;2.926;2024-02-16T04:29:55;11.90;99.90
46319;DHT22;32042;50.916;2.926;2024-02-16T04:32:21;11.90;99.90
46319;DHT22;32042;50.916;2.926;2024-02-16T04:34:47;11.90;99.90
46319;DHT22;32042;50.916;2.926;2024-02-16T04:37:13;11.90;99.90
46319;DHT22;32042;50.916;2.926;2024-02-16T04:39:40;11.90;99.90
46319;DHT22;32042;50.916;2.926;2024-02-16T04:42:06;11.90;99.90
46319;DHT22;32042;50.916;2.926;2024-02-16T04:44:31;11.90;99.90
46319;DHT22;32042;50.916;2.926;2024-02-16T04:46:57;11.90;99.90
46319;DHT22;32042;50.916;2.926;2024-02-16T04:49:22;11.90;99.90
46319;DHT22;32042;50.916;2.926;2024-02-16T04:51:49;11.90;99.90
46319;DHT22;32042;50.916;2.926;2024-02-16T04:54:14;11.90;99.90
46319;DHT22;32042;50.916;2.926;2024-02-16T04:56:40;11.90;99.90
46319;DHT22;32042;50.916;2.926;2024-02-16T04:59:06;11.90;99.90
46319;DHT22;32042;50.916;2.926;2024-02-16T05:01:31;11.90;99.90
46319;DHT22;32042;50.916;2.926;2024-02-16T05:04:00;11.90;99.90
46319;DHT22;32042;50.916;2.926;2024-02-16T05:06:28;11.90;99.90
46319;DHT22;32042;50.916;2.926;2024-02-16T05:08:56;12.00;99.90
46319;DHT22;32042;50.916;2.926;2024-02-16T05:11:22;12.00;99.90
46319;DHT22;32042;50.916;2.926;2024-02-16T05:13:50;12.00;99.90
46319;DHT22;32042;50.916;2.926;2024-02-16T05:16:16;12.00;99.90
46319;DHT22;32042;50.916;2.926;2024-02-16T05:18:42;12.00;99.90
46319;DHT22;32042;50.916;2.926;2024-02-16T05:21:08;12.00;99.90
46319;DHT22;32042;50.916;2.926;2024-02-16T05:23:35;12.00;99.90
46319;DHT22;32042;50.916;2.926;2024-02-16T05:26:00;12.00;99.90
46319;DHT22;32042;50.916;2.926;2024-02-16T05:28:26;12.00;99.90
46319;DHT22;32042;50.916;2.926;2024-02-16T05:30:52;12.00;99.90
46319;DHT22;32042;50.916;2.926;2024-02-16T05:33:18;12.00;99.90
46319;DHT22;32042;50.916;2.926;2024-02-16T05:35:43;12.00;99.90
46319;DHT22;32042;50.916;2.926;2024-02-16T05:38:10;12.00;99.90
46319;DHT22;32042;50.916;2.926;2024-02-16T05:40:49;12.00;99.90
46319;DHT22;32042;50.916;2.926;2024-02-16T05:43:22;12.10;99.90
46319;DHT22;32042;50.916;2.926;2024-02-16T05:45:49;12.10;99.90
46319;DHT22;32042;50.916;2.926;2024-02-16T05:48:15;12.10;99.90
46319;DHT22;32042;50.916;2.926;2024-02-16T05:50:41;12.10;99.90
46319;DHT22;32042;50.916;2.926;2024-02-16T05:53:08;12.00;99.90
46319;DHT22;32042;50.916;2.926;2024-02-16T05:55:39;12.10;99.90
46319;DHT22;32042;50.916;2.926;2024-02-16T05:58:04;12.10;99.90
46319;DHT22;32042;50.916;2.926;2024-02-16T06:00:33;12.10;99.90
46319;DHT22;32042;50.916;2.926;2024-02-16T06:02:59;12.10;99.90
46319;DHT22;32042;50.916;2.926;2024-02-16T06:05:25;12.10;99.90
46319;DHT22;32042;50.916;2.926;2024-02-16T06:07:51;12.10;99.90
46319;DHT22;32042;50.916;2.926;2024-02-16T06:10:18;12.10;99.90
46319;DHT22;32042;50.916;2.926;2024-02-16T06:12:44;12.20;99.90
46319;DHT22;32042;50.916;2.926;2024-02-16T06:15:09;12.20;99.90
46319;DHT22;32042;50.916;2.926;2024-02-16T06:17:35;12.20;99.90
46319;DHT22;32042;50.916;2.926;2024-02-16T06:20:04;12.20;99.90
46319;DHT22;32042;50.916;2.926;2024-02-16T06:22:30;12.20;99.90
46319;DHT22;32042;50.916;2.926;2024-02-16T06:24:57;12.30;99.90
46319;DHT22;32042;50.916;2.926;2024-02-16T06:27:23;12.30;99.90
46319;DHT22;32042;50.916;2.926;2024-02-16T06:29:49;12.30;99.90
46319;DHT22;32042;50.916;2.926;2024-02-16T06:32:15;12.40;99.90
46319;DHT22;32042;50.916;2.926;2024-02-16T06:34:42;12.30;99.90
46319;DHT22;32042;50.916;2.926;2024-02-16T06:37:08;12.30;99.90
46319;DHT22;32042;50.916;2.926;2024-02-16T06:39:34;12.30;99.90
46319;DHT22;32042;50.916;2.926;2024-02-16T06:41:59;12.40;99.90
46319;DHT22;32042;50.916;2.926;2024-02-16T06:44:25;12.40;99.90
46319;DHT22;32042;50.916;2.926;2024-02-16T06:46:51;12.40;99.90
46319;DHT22;32042;50.916;2.926;2024-02-16T06:49:17;12.40;99.90
46319;DHT22;32042;50.916;2.926;2024-02-16T06:51:43;12.40;99.90
46319;DHT22;32042;50.916;2.926;2024-02-16T06:54:10;12.40;99.90
46319;DHT22;32042;50.916;2.926;2024-02-16T06:56:36;12.40;99.90
46319;DHT22;32042;50.916;2.926;2024-02-16T06:59:02;12.40;99.90
46319;DHT22;32042;50.916;2.926;2024-02-16T07:01:28;12.40;99.90
46319;DHT22;32042;50.916;2.926;2024-02-16T07:03:54;12.40;99.90
46319;DHT22;32042;50.916;2.926;2024-02-16T07:06:21;12.40;99.90
46319;DHT22;32042;50.916;2.926;2024-02-16T07:08:47;12.50;99.90
46319;DHT22;32042;50.916;2.926;2024-02-16T07:11:13;12.50;99.90
46319;DHT22;32042;50.916;2.926;2024-02-16T07:13:42;12.50;99.90
46319;DHT22;32042;50.916;2.926;2024-02-16T07:16:08;12.60;99.90
46319;DHT22;32042;50.916;2.926;2024-02-16T07:18:34;12.60;99.90
46319;DHT22;32042;50.916;2.926;2024-02-16T07:21:00;12.60;99.90
46319;DHT22;32042;50.916;2.926;2024-02-16T07:23:26;12.60;99.90
46319;DHT22;32042;50.916;2.926;2024-02-16T07:25:52;12.60;99.90
46319;DHT22;32042;50.916;2.926;2024-02-16T07:28:22;12.60;99.90
46319;DHT22;32042;50.916;2.926;2024-02-16T07:30:49;12.60;99.90
46319;DHT22;32042;50.916;2.926;2024-02-16T07:33:14;12.60;99.90
46319;DHT22;32042;50.916;2.926;2024-02-16T07:35:40;12.60;99.90
46319;DHT22;32042;50.916;2.926;2024-02-16T07:38:06;12.60;99.90
46319;DHT22;32042;50.916;2.926;2024-02-16T07:40:32;12.70;99.90
46319;DHT22;32042;50.916;2.926;2024-02-16T07:42:58;12.60;99.90
46319;DHT22;32042;50.916;2.926;2024-02-16T07:45:24;12.70;99.90
46319;DHT22;32042;50.916;2.926;2024-02-16T07:47:50;12.70;99.90
46319;DHT22;32042;50.916;2.926;2024-02-16T07:50:20;12.60;99.90
46319;DHT22;32042;50.916;2.926;2024-02-16T07:52:46;12.60;99.90
46319;DHT22;32042;50.916;2.926;2024-02-16T07:55:11;12.60;99.90
46319;DHT22;32042;50.916;2.926;2024-02-16T07:57:37;12.60;99.90
46319;DHT22;32042;50.916;2.926;2024-02-16T08:00:04;12.60;99.90
46319;DHT22;32042;50.916;2.926;2024-02-16T08:02:30;12.60;99.90
46319;DHT22;32042;50.916;2.926;2024-02-16T08:04:56;12.60;99.90
46319;DHT22;32042;50.916;2.926;2024-02-16T08:07:22;12.60;99.90
46319;DHT22;32042;50.916;2.926;2024-02-16T08:09:48;12.60;99.90
46319;DHT22;32042;50.916;2.926;2024-02-16T08:12:15;12.60;99.90
46319;DHT22;32042;50.916;2.926;2024-02-16T08:14:41;12.50;99.90
46319;DHT22;32042;50.916;2.926;2024-02-16T08:17:08;12.60;99.90
46319;DHT22;32042;50.916;2.926;2024-02-16T08:19:36;12.50;99.90
46319;DHT22;32042;50.916;2.926;2024-02-16T08:22:07;12.40;99.90
46319;DHT22;32042;50.916;2.926;2024-02-16T08:24:34;12.40;99.90
46319;DHT22;32042;50.916;2.926;2024-02-16T08:27:00;12.40;99.90
46319;DHT22;32042;50.916;2.926;2024-02-16T08:29:26;12.30;99.90
46319;DHT22;32042;50.916;2.926;2024-02-16T08:31:52;12.30;99.90
46319;DHT22;32042;50.916;2.926;2024-02-16T08:34:18;12.30;99.90
46319;DHT22;32042;50.916;2.926;2024-02-16T08:36:44;12.30;99.90
46319;DHT22;32042;50.916;2.926;2024-02-16T08:39:11;12.30;99.90
46319;DHT22;32042;50.916;2.926;2024-02-16T08:41:37;12.30;99.90
46319;DHT22;32042;50.916;2.926;2024-02-16T08:44:03;12.30;99.90
46319;DHT22;32042;50.916;2.926;2024-02-16T08:46:29;12.30;99.90
46319;DHT22;32042;50.916;2.926;2024-02-16T08:48:55;12.20;99.90
46319;DHT22;32042;50.916;2.926;2024-02-16T08:51:21;12.20;99.90
46319;DHT22;32042;50.916;2.926;2024-02-16T08:53:47;12.20;99.90
46319;DHT22;32042;50.916;2.926;2024-02-16T08:56:12;12.20;99.90
46319;DHT22;32042;50.916;2.926;2024-02-16T08:58:38;12.20;99.90
46319;DHT22;32042;50.916;2.926;2024-02-16T09:01:05;12.20;99.90
46319;DHT22;32042;50.916;2.926;2024-02-16T09:03:30;12.20;99.90
46319;DHT22;32042;50.916;2.926;2024-02-16T09:06:04;12.20;99.90
46319;DHT22;32042;50.916;2.926;2024-02-16T09:08:30;12.10;99.90
46319;DHT22;32042;50.916;2.926;2024-02-16T09:10:59;12.10;99.90
46319;DHT22;32042;50.916;2.926;2024-02-16T09:13:25;12.10;99.90
46319;DHT22;32042;50.916;2.926;2024-02-16T09:15:50;12.10;99.90
46319;DHT22;32042;50.916;2.926;2024-02-16T09:18:17;12.10;99.90
46319;DHT22;32042;50.916;2.926;2024-02-16T09:20:43;12.10;99.90
46319;DHT22;32042;50.916;2.926;2024-02-16T09:23:09;12.10;99.90
46319;DHT22;32042;50.916;2.926;2024-02-16T09:25:35;12.10;99.90
46319;DHT22;32042;50.916;2.926;2024-02-16T09:28:02;12.10;99.90
46319;DHT22;32042;50.916;2.926;2024-02-16T09:30:28;12.00;99.90
46319;DHT22;32042;50.916;2.926;2024-02-16T09:32:53;12.00;99.90
46319;DHT22;32042;50.916;2.926;2024-02-16T09:35:19;12.00;99.90
46319;DHT22;32042;50.916;2.926;2024-02-16T09:37:45;12.00;99.90
46319;DHT22;32042;50.916;2.926;2024-02-16T09:40:12;12.00;99.90
46319;DHT22;32042;50.916;2.926;2024-02-16T09:42:38;12.00;99.90
46319;DHT22;32042;50.916;2.926;2024-02-16T09:45:07;12.00;99.90
46319;DHT22;32042;50.916;2.926;2024-02-16T09:47:33;11.90;99.90
46319;DHT22;32042;50.916;2.926;2024-02-16T09:50:01;12.00;99.90
46319;DHT22;32042;50.916;2.926;2024-02-16T09:52:26;12.00;99.90
46319;DHT22;32042;50.916;2.926;2024-02-16T09:54:52;11.90;99.90
46319;DHT22;32042;50.916;2.926;2024-02-16T09:57:18;11.90;99.90
46319;DHT22;32042;50.916;2.926;2024-02-16T09:59:44;11.90;99.90
46319;DHT22;32042;50.916;2.926;2024-02-16T10:02:10;11.90;99.90
46319;DHT22;32042;50.916;2.926;2024-02-16T10:04:36;11.90;99.90
46319;DHT22;32042;50.916;2.926;2024-02-16T10:07:03;11.80;99.90
46319;DHT22;32042;50.916;2.926;2024-02-16T10:09:31;11.80;99.90
46319;DHT22;32042;50.916;2.926;2024-02-16T10:11:58;11.80;99.90
46319;DHT22;32042;50.916;2.926;2024-02-16T10:14:24;11.80;99.90
46319;DHT22;32042;50.916;2.926;2024-02-16T10:17:00;11.80;99.90
46319;DHT22;32042;50.916;2.926;2024-02-16T10:19:29;11.70;99.90
46319;DHT22;32042;50.916;2.926;2024-02-16T10:22:11;11.70;99.90
46319;DHT22;32042;50.916;2.926;2024-02-16T10:24:38;11.70;99.90
46319;DHT22;32042;50.916;2.926;2024-02-16T10:27:17;11.70;99.90
46319;DHT22;32042;50.916;2.926;2024-02-16T10:29:47;11.70;99.90
46319;DHT22;32042;50.916;2.926;2024-02-16T10:32:16;11.70;99.90
46319;DHT22;32042;50.916;2.926;2024-02-16T10:34:43;11.70;99.90
46319;DHT22;32042;50.916;2.926;2024-02-16T10:37:11;11.70;99.90
46319;DHT22;32042;50.916;2.926;2024-02-16T10:39:37;11.70;99.90
46319;DHT22;32042;50.916;2.926;2024-02-16T10:42:06;11.70;99.90
46319;DHT22;32042;50.916;2.926;2024-02-16T10:44:34;11.70;99.90
46319;DHT22;32042;50.916;2.926;2024-02-16T10:47:01;11.60;99.90
46319;DHT22;32042;50.916;2.926;2024-02-16T10:49:26;11.70;99.90
46319;DHT22;32042;50.916;2.926;2024-02-16T10:51:55;11.70;99.90
46319;DHT22;32042;50.916;2.926;2024-02-16T10:54:26;11.70;99.90
46319;DHT22;32042;50.916;2.926;2024-02-16T10:56:53;11.70;99.90
46319;DHT22;32042;50.916;2.926;2024-02-16T10:59:20;11.70;99.90
46319;DHT22;32042;50.916;2.926;2024-02-16T11:01:45;11.70;99.90
46319;DHT22;32042;50.916;2.926;2024-02-16T11:04:18;11.70;99.90
46319;DHT22;32042;50.916;2.926;2024-02-16T11:06:48;11.80;99.90
46319;DHT22;32042;50.916;2.926;2024-02-16T11:09:33;11.80;99.90
46319;DHT22;32042;50.916;2.926;2024-02-16T11:12:00;11.80;99.90
46319;DHT22;32042;50.916;2.926;2024-02-16T11:17:23;11.80;99.90
46319;DHT22;32042;50.916;2.926;2024-02-16T11:19:49;11.80;99.90
46319;DHT22;32042;50.916;2.926;2024-02-16T11:22:18;11.90;99.90
46319;DHT22;32042;50.916;2.926;2024-02-16T11:24:46;11.90;99.90
46319;DHT22;32042;50.916;2.926;2024-02-16T11:27:12;12.00;99.90
46319;DHT22;32042;50.916;2.926;2024-02-16T11:29:40;12.10;99.90
46319;DHT22;32042;50.916;2.926;2024-02-16T11:32:07;12.10;99.90
46319;DHT22;32042;50.916;2.926;2024-02-16T11:34:33;12.20;99.90
46319;DHT22;32042;50.916;2.926;2024-02-16T11:37:02;12.20;99.90
46319;DHT22;32042;50.916;2.926;2024-02-16T11:39:28;12.30;99.90
46319;DHT22;32042;50.916;2.926;2024-02-16T11:42:05;12.30;99.90
46319;DHT22;32042;50.916;2.926;2024-02-16T11:44:32;12.40;99.90
46319;DHT22;32042;50.916;2.926;2024-02-16T11:46:59;12.40;99.90
46319;DHT22;32042;50.916;2.926;2024-02-16T11:49:28;12.50;99.90
46319;DHT22;32042;50.916;2.926;2024-02-16T11:51:54;12.60;99.90
46319;DHT22;32042;50.916;2.926;2024-02-16T11:54:19;12.70;99.90
46319;DHT22;32042;50.916;2.926;2024-02-16T11:56:49;12.80;99.90
46319;DHT22;32042;50.916;2.926;2024-02-16T11:59:18;12.80;99.90
46319;DHT22;32042;50.916;2.926;2024-02-16T12:01:52;12.90;99.90
46319;DHT22;32042;50.916;2.926;2024-02-16T12:04:27;12.90;99.90
46319;DHT22;32042;50.916;2.926;2024-02-16T12:07:02;13.00;99.90
46319;DHT22;32042;50.916;2.926;2024-02-16T12:09:29;13.00;99.90
46319;DHT22;32042;50.916;2.926;2024-02-16T12:11:57;13.10;99.90
46319;DHT22;32042;50.916;2.926;2024-02-16T12:14:23;13.10;99.90
46319;DHT22;32042;50.916;2.926;2024-02-16T12:16:51;13.10;99.90
46319;DHT22;32042;50.916;2.926;2024-02-16T12:19:18;13.20;99.90
46319;DHT22;32042;50.916;2.926;2024-02-16T12:21:51;13.20;99.90
46319;DHT22;32042;50.916;2.926;2024-02-16T12:24:21;13.20;99.90
46319;DHT22;32042;50.916;2.926;2024-02-16T12:26:47;13.30;99.90
46319;DHT22;32042;50.916;2.926;2024-02-16T12:29:13;13.30;99.90
46319;DHT22;32042;50.916;2.926;2024-02-16T12:31:46;13.30;99.90
46319;DHT22;32042;50.916;2.926;2024-02-16T12:34:13;13.30;99.90
46319;DHT22;32042;50.916;2.926;2024-02-16T12:36:40;13.40;99.90
46319;DHT22;32042;50.916;2.926;2024-02-16T12:39:06;13.40;99.90
46319;DHT22;32042;50.916;2.926;2024-02-16T12:41:34;13.40;99.90
46319;DHT22;32042;50.916;2.926;2024-02-16T12:44:00;13.40;99.90
46319;DHT22;32042;50.916;2.926;2024-02-16T12:46:25;13.50;99.90
46319;DHT22;32042;50.916;2.926;2024-02-16T12:48:52;13.50;99.90
46319;DHT22;32042;50.916;2.926;2024-02-16T12:51:19;13.60;99.90
46319;DHT22;32042;50.916;2.926;2024-02-16T12:53:44;13.70;99.90
46319;DHT22;32042;50.916;2.926;2024-02-16T12:56:10;13.70;99.90
46319;DHT22;32042;50.916;2.926;2024-02-16T12:58:37;13.70;99.90
46319;DHT22;32042;50.916;2.926;2024-02-16T13:01:03;13.80;99.90
46319;DHT22;32042;50.916;2.926;2024-02-16T13:03:35;13.80;99.90
46319;DHT22;32042;50.916;2.926;2024-02-16T13:06:03;13.80;99.90
46319;DHT22;32042;50.916;2.926;2024-02-16T13:08:31;13.80;99.90
46319;DHT22;32042;50.916;2.926;2024-02-16T13:10:57;13.80;99.90
46319;DHT22;32042;50.916;2.926;2024-02-16T13:13:23;13.90;99.90
46319;DHT22;32042;50.916;2.926;2024-02-16T13:15:49;13.90;99.90
46319;DHT22;32042;50.916;2.926;2024-02-16T13:18:15;13.90;99.90
46319;DHT22;32042;50.916;2.926;2024-02-16T13:20:41;14.00;99.90
46319;DHT22;32042;50.916;2.926;2024-02-16T13:23:07;14.10;99.90
46319;DHT22;32042;50.916;2.926;2024-02-16T13:25:33;14.20;99.90
46319;DHT22;32042;50.916;2.926;2024-02-16T13:27:59;14.20;99.90
46319;DHT22;32042;50.916;2.926;2024-02-16T13:30:27;14.30;99.90
46319;DHT22;32042;50.916;2.926;2024-02-16T13:32:53;14.30;99.90
46319;DHT22;32042;50.916;2.926;2024-02-16T13:35:20;14.30;99.90
46319;DHT22;32042;50.916;2.926;2024-02-16T13:37:45;14.30;99.90
46319;DHT22;32042;50.916;2.926;2024-02-16T13:40:12;14.20;99.90
46319;DHT22;32042;50.916;2.926;2024-02-16T13:42:41;14.20;99.90
46319;DHT22;32042;50.916;2.926;2024-02-16T13:45:10;14.10;99.90
46319;DHT22;32042;50.916;2.926;2024-02-16T13:47:36;14.10;99.90
46319;DHT22;32042;50.916;2.926;2024-02-16T13:50:06;14.10;99.90
46319;DHT22;32042;50.916;2.926;2024-02-16T13:52:31;14.10;99.90
46319;DHT22;32042;50.916;2.926;2024-02-16T13:54:58;14.10;99.90
46319;DHT22;32042;50.916;2.926;2024-02-16T13:57:23;14.10;99.90
46319;DHT22;32042;50.916;2.926;2024-02-16T13:59:49;14.20;99.90
46319;DHT22;32042;50.916;2.926;2024-02-16T14:02:14;14.40;99.90
46319;DHT22;32042;50.916;2.926;2024-02-16T14:04:41;14.60;99.90
46319;DHT22;32042;50.916;2.926;2024-02-16T14:07:07;14.70;99.90
46319;DHT22;32042;50.916;2.926;2024-02-16T14:09:34;15.00;99.90
46319;DHT22;32042;50.916;2.926;2024-02-16T14:12:00;15.00;99.90
46319;DHT22;32042;50.916;2.926;2024-02-16T14:14:26;15.10;99.90
46319;DHT22;32042;50.916;2.926;2024-02-16T14:16:52;15.20;99.90
46319;DHT22;32042;50.916;2.926;2024-02-16T14:19:18;15.30;99.90
46319;DHT22;32042;50.916;2.926;2024-02-16T14:21:44;15.30;99.90
46319;DHT22;32042;50.916;2.926;2024-02-16T14:24:11;15.20;99.90
46319;DHT22;32042;50.916;2.926;2024-02-16T14:26:37;15.20;99.90
46319;DHT22;32042;50.916;2.926;2024-02-16T14:29:04;15.10;99.90
46319;DHT22;32042;50.916;2.926;2024-02-16T14:31:30;15.00;99.90
46319;DHT22;32042;50.916;2.926;2024-02-16T14:33:55;14.80;99.90
46319;DHT22;32042;50.916;2.926;2024-02-16T14:36:21;14.70;99.90
46319;DHT22;32042;50.916;2.926;2024-02-16T14:38:47;14.70;99.90
46319;DHT22;32042;50.916;2.926;2024-02-16T14:41:13;14.60;99.90
46319;DHT22;32042;50.916;2.926;2024-02-16T14:43:41;14.60;99.90
46319;DHT22;32042;50.916;2.926;2024-02-16T14:46:08;14.50;99.90
46319;DHT22;32042;50.916;2.926;2024-02-16T14:48:34;14.50;99.90
46319;DHT22;32042;50.916;2.926;2024-02-16T14:51:00;14.50;99.90
46319;DHT22;32042;50.916;2.926;2024-02-16T14:53:26;14.50;99.90
46319;DHT22;32042;50.916;2.926;2024-02-16T14:55:52;14.50;99.90
46319;DHT22;32042;50.916;2.926;2024-02-16T14:58:18;14.50;99.90
46319;DHT22;32042;50.916;2.926;2024-02-16T15:00:44;14.40;99.90
46319;DHT22;32042;50.916;2.926;2024-02-16T15:03:10;14.40;99.90
46319;DHT22;32042;50.916;2.926;2024-02-16T15:05:36;14.30;99.90
46319;DHT22;32042;50.916;2.926;2024-02-16T15:08:03;14.20;99.90
46319;DHT22;32042;50.916;2.926;2024-02-16T15:10:29;14.20;99.90
46319;DHT22;32042;50.916;2.926;2024-02-16T15:12:55;14.10;99.90
46319;DHT22;32042;50.916;2.926;2024-02-16T15:15:20;14.00;99.90
46319;DHT22;32042;50.916;2.926;2024-02-16T15:17:46;14.00;99.90
46319;DHT22;32042;50.916;2.926;2024-02-16T15:20:14;14.00;99.90
46319;DHT22;32042;50.916;2.926;2024-02-16T15:22:39;13.90;99.90
46319;DHT22;32042;50.916;2.926;2024-02-16T15:25:07;13.90;99.90
46319;DHT22;32042;50.916;2.926;2024-02-16T15:27:33;14.00;99.90
46319;DHT22;32042;50.916;2.926;2024-02-16T15:30:00;14.00;99.90
46319;DHT22;32042;50.916;2.926;2024-02-16T15:32:27;14.10;99.90
46319;DHT22;32042;50.916;2.926;2024-02-16T15:34:53;14.20;99.90
46319;DHT22;32042;50.916;2.926;2024-02-16T15:37:20;14.20;99.90
46319;DHT22;32042;50.916;2.926;2024-02-16T15:39:49;14.20;99.90
46319;DHT22;32042;50.916;2.926;2024-02-16T15:42:29;14.20;99.90
46319;DHT22;32042;50.916;2.926;2024-02-16T15:45:01;14.10;99.90
46319;DHT22;32042;50.916;2.926;2024-02-16T15:47:27;14.00;99.90
46319;DHT22;32042;50.916;2.926;2024-02-16T15:49:53;13.90;99.90
46319;DHT22;32042;50.916;2.926;2024-02-16T15:52:19;13.80;99.90
46319;DHT22;32042;50.916;2.926;2024-02-16T15:54:45;13.80;99.90
46319;DHT22;32042;50.916;2.926;2024-02-16T15:57:10;13.70;99.90
46319;DHT22;32042;50.916;2.926;2024-02-16T15:59:37;13.60;99.90
46319;DHT22;32042;50.916;2.926;2024-02-16T16:02:03;13.60;99.90
46319;DHT22;32042;50.916;2.926;2024-02-16T16:04:31;13.60;99.90
46319;DHT22;32042;50.916;2.926;2024-02-16T16:06:59;13.50;99.90
46319;DHT22;32042;50.916;2.926;2024-02-16T16:09:25;13.50;99.90
46319;DHT22;32042;50.916;2.926;2024-02-16T16:11:51;13.40;99.90
46319;DHT22;32042;50.916;2.926;2024-02-16T16:14:16;13.40;99.90
46319;DHT22;32042;50.916;2.926;2024-02-16T16:16:42;13.30;99.90
46319;DHT22;32042;50.916;2.926;2024-02-16T16:19:08;13.20;99.90
46319;DHT22;32042;50.916;2.926;2024-02-16T16:21:34;13.10;99.90
46319;DHT22;32042;50.916;2.926;2024-02-16T16:24:00;13.10;99.90
46319;DHT22;32042;50.916;2.926;2024-02-16T16:26:25;13.00;99.90
46319;DHT22;32042;50.916;2.926;2024-02-16T16:28:52;13.00;99.90
46319;DHT22;32042;50.916;2.926;2024-02-16T16:31:18;12.90;99.90
46319;DHT22;32042;50.916;2.926;2024-02-16T16:33:44;12.80;99.90
46319;DHT22;32042;50.916;2.926;2024-02-16T16:36:09;12.80;99.90
46319;DHT22;32042;50.916;2.926;2024-02-16T16:38:42;12.80;99.90
46319;DHT22;32042;50.916;2.926;2024-02-16T16:41:08;12.70;99.90
46319;DHT22;32042;50.916;2.926;2024-02-16T16:43:34;12.70;99.90
46319;DHT22;32042;50.916;2.926;2024-02-16T16:46:00;12.60;99.90
46319;DHT22;32042;50.916;2.926;2024-02-16T16:48:25;12.60;99.90
46319;DHT22;32042;50.916;2.926;2024-02-16T16:50:51;12.60;99.90
46319;DHT22;32042;50.916;2.926;2024-02-16T16:53:17;12.50;99.90
46319;DHT22;32042;50.916;2.926;2024-02-16T16:55:42;12.50;99.90
46319;DHT22;32042;50.916;2.926;2024-02-16T16:58:08;12.40;99.90
46319;DHT22;32042;50.916;2.926;2024-02-16T17:00:34;12.40;99.90
46319;DHT22;32042;50.916;2.926;2024-02-16T17:03:00;12.40;99.90
46319;DHT22;32042;50.916;2.926;2024-02-16T17:05:26;12.30;99.90
46319;DHT22;32042;50.916;2.926;2024-02-16T17:07:52;12.30;99.90
46319;DHT22;32042;50.916;2.926;2024-02-16T17:10:18;12.20;99.90
46319;DHT22;32042;50.916;2.926;2024-02-16T17:12:44;12.20;99.90
46319;DHT22;32042;50.916;2.926;2024-02-16T17:15:11;12.10;99.90
46319;DHT22;32042;50.916;2.926;2024-02-16T17:17:39;12.00;99.90
46319;DHT22;32042;50.916;2.926;2024-02-16T17:20:10;12.00;99.90
46319;DHT22;32042;50.916;2.926;2024-02-16T17:22:36;11.90;99.90
46319;DHT22;32042;50.916;2.926;2024-02-16T17:25:03;11.80;99.90
46319;DHT22;32042;50.916;2.926;2024-02-16T17:27:30;11.80;99.90
46319;DHT22;32042;50.916;2.926;2024-02-16T17:29:57;11.80;99.90
46319;DHT22;32042;50.916;2.926;2024-02-16T17:32:23;11.80;99.90
46319;DHT22;32042;50.916;2.926;2024-02-16T17:34:50;11.70;99.90
46319;DHT22;32042;50.916;2.926;2024-02-16T17:37:16;11.70;99.90
46319;DHT22;32042;50.916;2.926;2024-02-16T17:39:41;11.60;99.90
46319;DHT22;32042;50.916;2.926;2024-02-16T17:42:08;11.60;99.90
46319;DHT22;32042;50.916;2.926;2024-02-16T19:36:54;11.00;99.90
46319;DHT22;32042;50.916;2.926;2024-02-16T19:39:20;11.00;99.90
46319;DHT22;32042;50.916;2.926;2024-02-16T19:41:47;11.00;99.90
46319;DHT22;32042;50.916;2.926;2024-02-16T19:44:13;10.90;99.90
46319;DHT22;32042;50.916;2.926;2024-02-16T19:46:42;10.90;99.90
46319;DHT22;32042;50.916;2.926;2024-02-16T20:35:34;10.60;99.90
46319;DHT22;32042;50.916;2.926;2024-02-16T20:38:00;10.60;99.90
46319;DHT22;32042;50.916;2.926;2024-02-16T20:40:26;10.60;99.90
46319;DHT22;32042;50.916;2.926;2024-02-16T20:42:52;10.60;99.90
46319;DHT22;32042;50.916;2.926;2024-02-16T20:45:18;10.60;99.90
46319;DHT22;32042;50.916;2.926;2024-02-16T20:47:46;10.60;99.90
46319;DHT22;32042;50.916;2.926;2024-02-16T20:50:12;10.50;99.90
46319;DHT22;32042;50.916;2.926;2024-02-16T20:52:38;10.50;99.90
46319;DHT22;32042;50.916;2.926;2024-02-16T20:55:04;10.40;99.90
46319;DHT22;32042;50.916;2.926;2024-02-16T20:57:30;10.40;99.90
46319;DHT22;32042;50.916;2.926;2024-02-16T20:59:56;10.40;99.90
46319;DHT22;32042;50.916;2.926;2024-02-16T21:02:21;10.30;99.90
46319;DHT22;32042;50.916;2.926;2024-02-16T21:04:47;10.20;99.90
46319;DHT22;32042;50.916;2.926;2024-02-16T21:07:14;10.20;99.90
46319;DHT22;32042;50.916;2.926;2024-02-16T21:09:40;10.20;99.90
46319;DHT22;32042;50.916;2.926;2024-02-16T21:12:06;10.10;99.90
46319;DHT22;32042;50.916;2.926;2024-02-16T21:14:32;10.10;99.90
46319;DHT22;32042;50.916;2.926;2024-02-16T21:16:57;10.10;99.90
46319;DHT22;32042;50.916;2.926;2024-02-16T21:19:24;10.00;99.90
46319;DHT22;32042;50.916;2.926;2024-02-16T21:21:50;10.00;99.90
46319;DHT22;32042;50.916;2.926;2024-02-16T21:24:16;10.00;99.90
46319;DHT22;32042;50.916;2.926;2024-02-16T21:26:49;10.00;99.90
46319;DHT22;32042;50.916;2.926;2024-02-16T21:29:15;10.00;99.90